sensor_id;sensor_type;location;lat;lon;timestamp;P1;durP1;ratioP1;P2;durP2;ratioP2
13483;SDS011;6814;57.786;12.080;2023-12-20T00:00:08;12.83;;;3.43;;
13483;SDS011;6814;57.786;12.080;2023-12-20T00:02:34;16.43;;;3.63;;
13483;SDS011;6814;57.786;12.080;2023-12-20T00:05:01;13.37;;;3.30;;
13483;SDS011;6814;57.786;12.080;2023-12-20T00:07:27;21.57;;;4.23;;
13483;SDS011;6814;57.786;12.080;2023-12-20T00:09:54;21.20;;;3.97;;
13483;SDS011;6814;57.786;12.080;2023-12-20T00:12:20;17.80;;;3.80;;
13483;SDS011;6814;57.786;12.080;2023-12-20T00:14:48;24.93;;;3.63;;
13483;SDS011;6814;57.786;12.080;2023-12-20T00:17:15;27.63;;;4.33;;
13483;SDS011;6814;57.786;12.080;2023-12-20T00:19:41;17.53;;;2.83;;
13483;SDS011;6814;57.786;12.080;2023-12-20T00:22:08;23.87;;;3.97;;
13483;SDS011;6814;57.786;12.080;2023-12-20T00:24:34;23.13;;;4.30;;
13483;SDS011;6814;57.786;12.080;2023-12-20T00:27:01;19.30;;;2.93;;
13483;SDS011;6814;57.786;12.080;2023-12-20T00:29:27;18.47;;;4.23;;
13483;SDS011;6814;57.786;12.080;2023-12-20T00:31:55;17.40;;;3.23;;
13483;SDS011;6814;57.786;12.080;2023-12-20T00:34:22;16.63;;;3.70;;
13483;SDS011;6814;57.786;12.080;2023-12-20T00:36:49;21.87;;;3.57;;
13483;SDS011;6814;57.786;12.080;2023-12-20T00:39:15;22.00;;;3.33;;
13483;SDS011;6814;57.786;12.080;2023-12-20T00:41:42;20.37;;;3.40;;
13483;SDS011;6814;57.786;12.080;2023-12-20T00:44:08;27.60;;;4.23;;
13483;SDS011;6814;57.786;12.080;2023-12-20T00:46:35;21.17;;;3.90;;
13483;SDS011;6814;57.786;12.080;2023-12-20T00:49:03;18.27;;;3.20;;
13483;SDS011;6814;57.786;12.080;2023-12-20T00:51:29;18.80;;;3.27;;
13483;SDS011;6814;57.786;12.080;2023-12-20T00:53:56;18.70;;;3.40;;
13483;SDS011;6814;57.786;12.080;2023-12-20T00:56:22;18.40;;;3.40;;
13483;SDS011;6814;57.786;12.080;2023-12-20T00:58:49;16.97;;;2.63;;
13483;SDS011;6814;57.786;12.080;2023-12-20T01:01:15;24.93;;;3.90;;
13483;SDS011;6814;57.786;12.080;2023-12-20T01:03:42;21.03;;;4.00;;
13483;SDS011;6814;57.786;12.080;2023-12-20T01:06:10;19.07;;;3.07;;
13483;SDS011;6814;57.786;12.080;2023-12-20T01:08:37;17.37;;;3.20;;
13483;SDS011;6814;57.786;12.080;2023-12-20T01:11:03;20.83;;;3.60;;
13483;SDS011;6814;57.786;12.080;2023-12-20T01:13:30;17.57;;;3.60;;
13483;SDS011;6814;57.786;12.080;2023-12-20T01:15:57;22.33;;;3.47;;
13483;SDS011;6814;57.786;12.080;2023-12-20T01:18:23;15.77;;;3.40;;
13483;SDS011;6814;57.786;12.080;2023-12-20T01:20:50;16.63;;;3.30;;
13483;SDS011;6814;57.786;12.080;2023-12-20T01:23:18;21.13;;;4.20;;
13483;SDS011;6814;57.786;12.080;2023-12-20T01:25:44;27.57;;;3.97;;
13483;SDS011;6814;57.786;12.080;2023-12-20T01:28:11;17.07;;;3.27;;
13483;SDS011;6814;57.786;12.080;2023-12-20T01:30:38;20.90;;;3.27;;
13483;SDS011;6814;57.786;12.080;2023-12-20T01:33:04;20.63;;;4.17;;
13483;SDS011;6814;57.786;12.080;2023-12-20T01:35:31;18.20;;;2.97;;
13483;SDS011;6814;57.786;12.080;2023-12-20T01:37:57;16.63;;;3.20;;
13483;SDS011;6814;57.786;12.080;2023-12-20T01:40:25;22.03;;;3.30;;
13483;SDS011;6814;57.786;12.080;2023-12-20T01:42:58;18.00;;;3.00;;
13483;SDS011;6814;57.786;12.080;2023-12-20T01:45:25;15.70;;;3.23;;
13483;SDS011;6814;57.786;12.080;2023-12-20T01:47:51;17.23;;;2.60;;
13483;SDS011;6814;57.786;12.080;2023-12-20T01:50:18;21.13;;;3.00;;
13483;SDS011;6814;57.786;12.080;2023-12-20T01:52:45;15.70;;;2.80;;
13483;SDS011;6814;57.786;12.080;2023-12-20T01:55:11;11.67;;;3.30;;
13483;SDS011;6814;57.786;12.080;2023-12-20T01:57:42;20.67;;;2.67;;
13483;SDS011;6814;57.786;12.080;2023-12-20T02:00:09;18.80;;;3.20;;
13483;SDS011;6814;57.786;12.080;2023-12-20T02:02:36;16.27;;;3.00;;
13483;SDS011;6814;57.786;12.080;2023-12-20T02:05:04;16.57;;;2.93;;
13483;SDS011;6814;57.786;12.080;2023-12-20T02:07:31;18.70;;;3.40;;
13483;SDS011;6814;57.786;12.080;2023-12-20T02:09:58;11.37;;;2.73;;
13483;SDS011;6814;57.786;12.080;2023-12-20T02:12:24;17.93;;;3.70;;
13483;SDS011;6814;57.786;12.080;2023-12-20T02:14:52;23.27;;;3.93;;
13483;SDS011;6814;57.786;12.080;2023-12-20T02:17:19;16.20;;;3.13;;
13483;SDS011;6814;57.786;12.080;2023-12-20T02:19:46;10.87;;;3.23;;
13483;SDS011;6814;57.786;12.080;2023-12-20T02:22:13;16.53;;;3.37;;
13483;SDS011;6814;57.786;12.080;2023-12-20T02:24:39;18.73;;;3.53;;
13483;SDS011;6814;57.786;12.080;2023-12-20T02:27:06;16.10;;;2.87;;
13483;SDS011;6814;57.786;12.080;2023-12-20T02:29:33;17.47;;;3.50;;
13483;SDS011;6814;57.786;12.080;2023-12-20T02:31:59;15.73;;;2.97;;
13483;SDS011;6814;57.786;12.080;2023-12-20T02:34:26;16.70;;;3.10;;
13483;SDS011;6814;57.786;12.080;2023-12-20T02:36:52;14.57;;;2.97;;
13483;SDS011;6814;57.786;12.080;2023-12-20T02:39:21;21.53;;;3.53;;
13483;SDS011;6814;57.786;12.080;2023-12-20T02:41:48;13.93;;;2.97;;
13483;SDS011;6814;57.786;12.080;2023-12-20T02:44:14;13.17;;;2.83;;
13483;SDS011;6814;57.786;12.080;2023-12-20T02:46:41;14.37;;;3.53;;
13483;SDS011;6814;57.786;12.080;2023-12-20T02:49:07;14.60;;;2.47;;
13483;SDS011;6814;57.786;12.080;2023-12-20T02:51:34;19.23;;;3.33;;
13483;SDS011;6814;57.786;12.080;2023-12-20T02:54:03;18.03;;;3.40;;
13483;SDS011;6814;57.786;12.080;2023-12-20T02:56:31;21.60;;;3.27;;
13483;SDS011;6814;57.786;12.080;2023-12-20T02:58:57;13.43;;;2.50;;
13483;SDS011;6814;57.786;12.080;2023-12-20T03:01:24;22.50;;;3.13;;
13483;SDS011;6814;57.786;12.080;2023-12-20T03:03:50;10.93;;;2.30;;
13483;SDS011;6814;57.786;12.080;2023-12-20T03:06:17;19.83;;;3.43;;
13483;SDS011;6814;57.786;12.080;2023-12-20T03:08:44;12.30;;;2.93;;
13483;SDS011;6814;57.786;12.080;2023-12-20T03:11:10;13.77;;;2.47;;
13483;SDS011;6814;57.786;12.080;2023-12-20T03:13:39;17.00;;;3.60;;
13483;SDS011;6814;57.786;12.080;2023-12-20T03:16:07;13.50;;;3.07;;
13483;SDS011;6814;57.786;12.080;2023-12-20T03:18:34;11.47;;;2.47;;
13483;SDS011;6814;57.786;12.080;2023-12-20T03:21:00;11.07;;;2.57;;
13483;SDS011;6814;57.786;12.080;2023-12-20T03:23:27;11.60;;;3.33;;
13483;SDS011;6814;57.786;12.080;2023-12-20T03:25:54;10.17;;;2.40;;
13483;SDS011;6814;57.786;12.080;2023-12-20T03:28:20;9.00;;;2.27;;
13483;SDS011;6814;57.786;12.080;2023-12-20T03:30:49;14.30;;;3.30;;
13483;SDS011;6814;57.786;12.080;2023-12-20T03:33:16;14.40;;;3.07;;
13483;SDS011;6814;57.786;12.080;2023-12-20T03:35:42;19.77;;;2.80;;
13483;SDS011;6814;57.786;12.080;2023-12-20T03:38:09;13.57;;;2.63;;
13483;SDS011;6814;57.786;12.080;2023-12-20T03:40:35;14.60;;;2.70;;
13483;SDS011;6814;57.786;12.080;2023-12-20T03:43:02;12.63;;;2.43;;
13483;SDS011;6814;57.786;12.080;2023-12-20T03:45:28;14.03;;;3.07;;
13483;SDS011;6814;57.786;12.080;2023-12-20T03:47:56;16.13;;;3.03;;
13483;SDS011;6814;57.786;12.080;2023-12-20T03:50:23;8.93;;;1.97;;
13483;SDS011;6814;57.786;12.080;2023-12-20T03:52:49;7.20;;;1.63;;
13483;SDS011;6814;57.786;12.080;2023-12-20T03:55:16;9.93;;;1.93;;
13483;SDS011;6814;57.786;12.080;2023-12-20T03:57:42;8.27;;;2.00;;
13483;SDS011;6814;57.786;12.080;2023-12-20T04:00:10;12.33;;;2.27;;
13483;SDS011;6814;57.786;12.080;2023-12-20T04:02:37;7.43;;;1.90;;
13483;SDS011;6814;57.786;12.080;2023-12-20T04:05:05;8.33;;;1.70;;
13483;SDS011;6814;57.786;12.080;2023-12-20T04:07:32;9.77;;;2.00;;
13483;SDS011;6814;57.786;12.080;2023-12-20T04:09:59;11.77;;;2.30;;
13483;SDS011;6814;57.786;12.080;2023-12-20T04:12:27;10.50;;;2.00;;
13483;SDS011;6814;57.786;12.080;2023-12-20T04:14:54;7.53;;;2.07;;
13483;SDS011;6814;57.786;12.080;2023-12-20T04:17:20;9.60;;;2.10;;
13483;SDS011;6814;57.786;12.080;2023-12-20T04:19:48;7.53;;;2.00;;
13483;SDS011;6814;57.786;12.080;2023-12-20T04:22:16;12.80;;;1.83;;
13483;SDS011;6814;57.786;12.080;2023-12-20T04:24:43;8.87;;;1.90;;
13483;SDS011;6814;57.786;12.080;2023-12-20T04:27:09;11.53;;;1.87;;
13483;SDS011;6814;57.786;12.080;2023-12-20T04:29:36;12.20;;;2.33;;
13483;SDS011;6814;57.786;12.080;2023-12-20T04:32:03;8.07;;;1.43;;
13483;SDS011;6814;57.786;12.080;2023-12-20T04:34:30;7.30;;;1.80;;
13483;SDS011;6814;57.786;12.080;2023-12-20T04:36:56;5.77;;;1.37;;
13483;SDS011;6814;57.786;12.080;2023-12-20T04:39:24;6.07;;;1.23;;
13483;SDS011;6814;57.786;12.080;2023-12-20T04:41:50;3.43;;;1.03;;
13483;SDS011;6814;57.786;12.080;2023-12-20T04:44:17;6.43;;;1.20;;
13483;SDS011;6814;57.786;12.080;2023-12-20T04:46:43;6.73;;;1.23;;
13483;SDS011;6814;57.786;12.080;2023-12-20T04:49:10;6.53;;;1.87;;
13483;SDS011;6814;57.786;12.080;2023-12-20T04:51:37;13.37;;;1.80;;
13483;SDS011;6814;57.786;12.080;2023-12-20T04:54:04;5.70;;;1.23;;
13483;SDS011;6814;57.786;12.080;2023-12-20T04:56:31;6.93;;;1.30;;
13483;SDS011;6814;57.786;12.080;2023-12-20T04:58:58;6.17;;;1.53;;
13483;SDS011;6814;57.786;12.080;2023-12-20T05:01:25;11.73;;;1.90;;
13483;SDS011;6814;57.786;12.080;2023-12-20T05:03:51;10.83;;;1.90;;
13483;SDS011;6814;57.786;12.080;2023-12-20T05:06:18;10.57;;;1.90;;
13483;SDS011;6814;57.786;12.080;2023-12-20T05:08:44;13.30;;;2.97;;
13483;SDS011;6814;57.786;12.080;2023-12-20T05:11:11;10.77;;;2.60;;
13483;SDS011;6814;57.786;12.080;2023-12-20T05:13:40;11.80;;;2.37;;
13483;SDS011;6814;57.786;12.080;2023-12-20T05:16:07;13.73;;;2.20;;
13483;SDS011;6814;57.786;12.080;2023-12-20T05:18:35;16.50;;;2.73;;
13483;SDS011;6814;57.786;12.080;2023-12-20T05:21:02;10.57;;;2.00;;
13483;SDS011;6814;57.786;12.080;2023-12-20T05:23:28;12.47;;;2.23;;
13483;SDS011;6814;57.786;12.080;2023-12-20T05:25:55;15.57;;;2.47;;
13483;SDS011;6814;57.786;12.080;2023-12-20T05:28:21;16.27;;;2.57;;
13483;SDS011;6814;57.786;12.080;2023-12-20T05:30:49;14.00;;;2.50;;
13483;SDS011;6814;57.786;12.080;2023-12-20T05:33:16;15.47;;;3.07;;
13483;SDS011;6814;57.786;12.080;2023-12-20T05:35:42;13.23;;;2.77;;
13483;SDS011;6814;57.786;12.080;2023-12-20T05:38:09;9.70;;;1.93;;
13483;SDS011;6814;57.786;12.080;2023-12-20T05:40:35;15.17;;;2.77;;
13483;SDS011;6814;57.786;12.080;2023-12-20T05:43:02;20.40;;;3.43;;
13483;SDS011;6814;57.786;12.080;2023-12-20T05:45:29;15.47;;;3.30;;
13483;SDS011;6814;57.786;12.080;2023-12-20T05:47:57;15.57;;;4.33;;
13483;SDS011;6814;57.786;12.080;2023-12-20T05:50:24;20.60;;;3.60;;
13483;SDS011;6814;57.786;12.080;2023-12-20T05:52:50;21.13;;;3.73;;
13483;SDS011;6814;57.786;12.080;2023-12-20T05:55:17;16.57;;;2.40;;
13483;SDS011;6814;57.786;12.080;2023-12-20T05:57:43;13.60;;;3.33;;
13483;SDS011;6814;57.786;12.080;2023-12-20T06:00:10;17.57;;;2.80;;
13483;SDS011;6814;57.786;12.080;2023-12-20T06:02:37;18.83;;;3.57;;
13483;SDS011;6814;57.786;12.080;2023-12-20T06:05:05;12.97;;;3.20;;
13483;SDS011;6814;57.786;12.080;2023-12-20T06:07:32;14.90;;;3.63;;
13483;SDS011;6814;57.786;12.080;2023-12-20T06:09:59;13.60;;;2.97;;
13483;SDS011;6814;57.786;12.080;2023-12-20T06:12:25;17.00;;;3.00;;
13483;SDS011;6814;57.786;12.080;2023-12-20T06:14:53;17.97;;;3.50;;
13483;SDS011;6814;57.786;12.080;2023-12-20T06:17:20;10.17;;;2.60;;
13483;SDS011;6814;57.786;12.080;2023-12-20T06:19:47;16.17;;;3.03;;
13483;SDS011;6814;57.786;12.080;2023-12-20T06:22:15;17.00;;;2.47;;
13483;SDS011;6814;57.786;12.080;2023-12-20T06:24:41;17.80;;;2.37;;
13483;SDS011;6814;57.786;12.080;2023-12-20T06:27:08;19.53;;;3.07;;
13483;SDS011;6814;57.786;12.080;2023-12-20T06:29:35;16.43;;;3.43;;
13483;SDS011;6814;57.786;12.080;2023-12-20T06:32:01;16.80;;;2.90;;
13483;SDS011;6814;57.786;12.080;2023-12-20T06:34:28;16.60;;;3.97;;
13483;SDS011;6814;57.786;12.080;2023-12-20T06:36:54;13.43;;;2.70;;
13483;SDS011;6814;57.786;12.080;2023-12-20T06:39:22;15.07;;;2.13;;
13483;SDS011;6814;57.786;12.080;2023-12-20T06:41:49;11.87;;;2.00;;
13483;SDS011;6814;57.786;12.080;2023-12-20T06:44:15;15.03;;;2.87;;
13483;SDS011;6814;57.786;12.080;2023-12-20T06:46:42;9.03;;;1.57;;
13483;SDS011;6814;57.786;12.080;2023-12-20T06:49:09;10.80;;;2.17;;
13483;SDS011;6814;57.786;12.080;2023-12-20T06:51:35;15.10;;;2.47;;
13483;SDS011;6814;57.786;12.080;2023-12-20T06:54:02;14.57;;;2.47;;
13483;SDS011;6814;57.786;12.080;2023-12-20T06:56:30;15.10;;;2.73;;
13483;SDS011;6814;57.786;12.080;2023-12-20T06:58:57;10.83;;;2.10;;
13483;SDS011;6814;57.786;12.080;2023-12-20T07:01:23;14.07;;;2.20;;
13483;SDS011;6814;57.786;12.080;2023-12-20T07:03:50;10.37;;;2.50;;
13483;SDS011;6814;57.786;12.080;2023-12-20T07:06:16;21.10;;;2.70;;
13483;SDS011;6814;57.786;12.080;2023-12-20T07:08:43;19.03;;;2.57;;
13483;SDS011;6814;57.786;12.080;2023-12-20T07:11:09;18.97;;;2.63;;
13483;SDS011;6814;57.786;12.080;2023-12-20T07:13:37;20.13;;;2.80;;
13483;SDS011;6814;57.786;12.080;2023-12-20T07:16:04;14.73;;;3.03;;
13483;SDS011;6814;57.786;12.080;2023-12-20T07:18:30;16.50;;;3.07;;
13483;SDS011;6814;57.786;12.080;2023-12-20T07:20:57;15.83;;;2.87;;
13483;SDS011;6814;57.786;12.080;2023-12-20T07:23:23;19.83;;;3.37;;
13483;SDS011;6814;57.786;12.080;2023-12-20T07:25:51;16.27;;;3.07;;
13483;SDS011;6814;57.786;12.080;2023-12-20T07:28:17;15.40;;;3.10;;
13483;SDS011;6814;57.786;12.080;2023-12-20T07:30:45;13.33;;;2.70;;
13483;SDS011;6814;57.786;12.080;2023-12-20T07:33:12;23.27;;;3.50;;
13483;SDS011;6814;57.786;12.080;2023-12-20T07:35:38;17.23;;;3.00;;
13483;SDS011;6814;57.786;12.080;2023-12-20T07:38:05;18.07;;;2.53;;
13483;SDS011;6814;57.786;12.080;2023-12-20T07:40:32;9.60;;;2.27;;
13483;SDS011;6814;57.786;12.080;2023-12-20T07:42:58;15.40;;;2.60;;
13483;SDS011;6814;57.786;12.080;2023-12-20T07:45:25;16.57;;;2.57;;
13483;SDS011;6814;57.786;12.080;2023-12-20T07:47:53;18.87;;;2.70;;
13483;SDS011;6814;57.786;12.080;2023-12-20T07:50:19;14.07;;;2.70;;
13483;SDS011;6814;57.786;12.080;2023-12-20T07:52:46;14.47;;;2.10;;
13483;SDS011;6814;57.786;12.080;2023-12-20T07:55:12;18.47;;;2.50;;
13483;SDS011;6814;57.786;12.080;2023-12-20T07:57:39;15.23;;;2.77;;
13483;SDS011;6814;57.786;12.080;2023-12-20T08:00:06;11.10;;;1.90;;
13483;SDS011;6814;57.786;12.080;2023-12-20T08:02:33;19.30;;;2.83;;
13483;SDS011;6814;57.786;12.080;2023-12-20T08:05:01;11.27;;;2.87;;
13483;SDS011;6814;57.786;12.080;2023-12-20T08:07:27;20.90;;;3.00;;
13483;SDS011;6814;57.786;12.080;2023-12-20T08:09:54;17.60;;;2.67;;
13483;SDS011;6814;57.786;12.080;2023-12-20T08:12:22;18.47;;;2.90;;
13483;SDS011;6814;57.786;12.080;2023-12-20T08:14:48;13.20;;;2.87;;
13483;SDS011;6814;57.786;12.080;2023-12-20T08:17:15;14.17;;;3.10;;
13483;SDS011;6814;57.786;12.080;2023-12-20T08:19:44;17.77;;;2.77;;
13483;SDS011;6814;57.786;12.080;2023-12-20T08:22:12;13.93;;;3.00;;
13483;SDS011;6814;57.786;12.080;2023-12-20T08:24:38;19.40;;;3.40;;
13483;SDS011;6814;57.786;12.080;2023-12-20T08:27:05;19.23;;;3.53;;
13483;SDS011;6814;57.786;12.080;2023-12-20T08:29:31;17.63;;;3.17;;
13483;SDS011;6814;57.786;12.080;2023-12-20T08:31:58;14.77;;;3.27;;
13483;SDS011;6814;57.786;12.080;2023-12-20T08:34:25;16.70;;;2.57;;
13483;SDS011;6814;57.786;12.080;2023-12-20T08:36:52;12.53;;;2.90;;
13483;SDS011;6814;57.786;12.080;2023-12-20T08:39:19;21.67;;;3.40;;
13483;SDS011;6814;57.786;12.080;2023-12-20T08:41:46;23.97;;;3.73;;
13483;SDS011;6814;57.786;12.080;2023-12-20T08:44:13;24.03;;;3.93;;
13483;SDS011;6814;57.786;12.080;2023-12-20T08:46:42;21.57;;;4.60;;
13483;SDS011;6814;57.786;12.080;2023-12-20T08:49:09;21.13;;;4.30;;
13483;SDS011;6814;57.786;12.080;2023-12-20T08:51:35;22.43;;;4.70;;
13483;SDS011;6814;57.786;12.080;2023-12-20T08:54:05;18.53;;;2.73;;
13483;SDS011;6814;57.786;12.080;2023-12-20T08:56:34;19.67;;;4.83;;
13483;SDS011;6814;57.786;12.080;2023-12-20T08:59:01;12.73;;;2.57;;
13483;SDS011;6814;57.786;12.080;2023-12-20T09:01:27;25.43;;;3.97;;
13483;SDS011;6814;57.786;12.080;2023-12-20T09:03:54;24.17;;;3.60;;
13483;SDS011;6814;57.786;12.080;2023-12-20T09:06:20;16.23;;;2.80;;
13483;SDS011;6814;57.786;12.080;2023-12-20T09:08:47;14.97;;;2.83;;
13483;SDS011;6814;57.786;12.080;2023-12-20T09:11:13;12.03;;;2.70;;
13483;SDS011;6814;57.786;12.080;2023-12-20T09:13:41;14.60;;;3.23;;
13483;SDS011;6814;57.786;12.080;2023-12-20T09:16:09;18.43;;;3.00;;
13483;SDS011;6814;57.786;12.080;2023-12-20T09:18:36;20.40;;;3.53;;
13483;SDS011;6814;57.786;12.080;2023-12-20T09:21:02;16.63;;;2.97;;
13483;SDS011;6814;57.786;12.080;2023-12-20T09:23:29;18.97;;;3.87;;
13483;SDS011;6814;57.786;12.080;2023-12-20T09:25:55;18.90;;;2.60;;
13483;SDS011;6814;57.786;12.080;2023-12-20T09:28:22;21.53;;;3.93;;
13483;SDS011;6814;57.786;12.080;2023-12-20T09:30:50;23.60;;;4.73;;
13483;SDS011;6814;57.786;12.080;2023-12-20T09:33:16;20.87;;;4.00;;
13483;SDS011;6814;57.786;12.080;2023-12-20T09:35:43;22.70;;;3.40;;
13483;SDS011;6814;57.786;12.080;2023-12-20T09:38:09;21.57;;;3.93;;
13483;SDS011;6814;57.786;12.080;2023-12-20T09:40:36;18.90;;;3.70;;
13483;SDS011;6814;57.786;12.080;2023-12-20T09:43:03;25.10;;;5.00;;
13483;SDS011;6814;57.786;12.080;2023-12-20T09:45:30;21.07;;;4.00;;
13483;SDS011;6814;57.786;12.080;2023-12-20T09:47:58;14.47;;;3.27;;
13483;SDS011;6814;57.786;12.080;2023-12-20T09:50:24;21.83;;;4.27;;
13483;SDS011;6814;57.786;12.080;2023-12-20T09:52:52;25.30;;;5.17;;
13483;SDS011;6814;57.786;12.080;2023-12-20T09:55:21;26.87;;;4.20;;
13483;SDS011;6814;57.786;12.080;2023-12-20T09:57:48;21.73;;;5.27;;
13483;SDS011;6814;57.786;12.080;2023-12-20T10:00:15;27.23;;;4.40;;
13483;SDS011;6814;57.786;12.080;2023-12-20T10:02:44;19.93;;;4.27;;
13483;SDS011;6814;57.786;12.080;2023-12-20T10:05:15;23.07;;;4.77;;
13483;SDS011;6814;57.786;12.080;2023-12-20T10:07:44;23.60;;;4.77;;
13483;SDS011;6814;57.786;12.080;2023-12-20T10:10:10;15.40;;;3.90;;
13483;SDS011;6814;57.786;12.080;2023-12-20T10:12:38;17.13;;;4.40;;
13483;SDS011;6814;57.786;12.080;2023-12-20T10:15:05;14.50;;;4.27;;
13483;SDS011;6814;57.786;12.080;2023-12-20T10:17:31;25.43;;;4.67;;
13483;SDS011;6814;57.786;12.080;2023-12-20T10:19:58;19.57;;;4.30;;
13483;SDS011;6814;57.786;12.080;2023-12-20T10:22:26;18.23;;;4.67;;
13483;SDS011;6814;57.786;12.080;2023-12-20T10:24:53;21.33;;;4.07;;
13483;SDS011;6814;57.786;12.080;2023-12-20T10:27:20;16.30;;;3.77;;
13483;SDS011;6814;57.786;12.080;2023-12-20T10:29:46;17.03;;;3.93;;
13483;SDS011;6814;57.786;12.080;2023-12-20T10:32:22;18.53;;;4.80;;
13483;SDS011;6814;57.786;12.080;2023-12-20T10:34:50;27.57;;;4.73;;
13483;SDS011;6814;57.786;12.080;2023-12-20T10:37:16;22.47;;;4.13;;
13483;SDS011;6814;57.786;12.080;2023-12-20T10:39:44;17.63;;;4.90;;
13483;SDS011;6814;57.786;12.080;2023-12-20T10:42:14;18.90;;;4.83;;
13483;SDS011;6814;57.786;12.080;2023-12-20T10:44:42;19.20;;;5.40;;
13483;SDS011;6814;57.786;12.080;2023-12-20T10:47:08;14.33;;;4.00;;
13483;SDS011;6814;57.786;12.080;2023-12-20T10:49:37;23.73;;;4.47;;
13483;SDS011;6814;57.786;12.080;2023-12-20T10:52:06;20.17;;;4.90;;
13483;SDS011;6814;57.786;12.080;2023-12-20T10:54:35;16.37;;;3.67;;
13483;SDS011;6814;57.786;12.080;2023-12-20T10:57:06;16.10;;;4.60;;
13483;SDS011;6814;57.786;12.080;2023-12-20T10:59:33;24.67;;;4.50;;
13483;SDS011;6814;57.786;12.080;2023-12-20T11:02:00;20.37;;;4.80;;
13483;SDS011;6814;57.786;12.080;2023-12-20T11:04:35;22.60;;;5.73;;
13483;SDS011;6814;57.786;12.080;2023-12-20T11:07:06;20.00;;;4.53;;
13483;SDS011;6814;57.786;12.080;2023-12-20T11:09:36;15.57;;;4.17;;
13483;SDS011;6814;57.786;12.080;2023-12-20T11:12:08;18.57;;;4.90;;
13483;SDS011;6814;57.786;12.080;2023-12-20T11:14:38;12.07;;;4.63;;
13483;SDS011;6814;57.786;12.080;2023-12-20T11:17:07;14.47;;;5.13;;
13483;SDS011;6814;57.786;12.080;2023-12-20T11:19:35;22.20;;;5.07;;
13483;SDS011;6814;57.786;12.080;2023-12-20T11:22:03;18.87;;;5.87;;
13483;SDS011;6814;57.786;12.080;2023-12-20T11:24:30;14.60;;;5.60;;
13483;SDS011;6814;57.786;12.080;2023-12-20T11:26:57;10.10;;;4.10;;
13483;SDS011;6814;57.786;12.080;2023-12-20T11:29:30;14.63;;;5.40;;
13483;SDS011;6814;57.786;12.080;2023-12-20T11:31:57;14.07;;;5.67;;
13483;SDS011;6814;57.786;12.080;2023-12-20T11:34:26;13.57;;;4.93;;
13483;SDS011;6814;57.786;12.080;2023-12-20T11:36:56;14.77;;;5.57;;
13483;SDS011;6814;57.786;12.080;2023-12-20T11:39:23;12.40;;;5.53;;
13483;SDS011;6814;57.786;12.080;2023-12-20T11:41:49;10.90;;;4.60;;
13483;SDS011;6814;57.786;12.080;2023-12-20T11:44:17;14.07;;;5.10;;
13483;SDS011;6814;57.786;12.080;2023-12-20T11:46:45;8.30;;;4.37;;
13483;SDS011;6814;57.786;12.080;2023-12-20T11:49:12;9.37;;;3.80;;
13483;SDS011;6814;57.786;12.080;2023-12-20T11:51:40;11.47;;;4.33;;
13483;SDS011;6814;57.786;12.080;2023-12-20T11:54:06;11.03;;;4.93;;
13483;SDS011;6814;57.786;12.080;2023-12-20T11:56:34;15.83;;;5.40;;
13483;SDS011;6814;57.786;12.080;2023-12-20T11:59:01;7.77;;;4.47;;
13483;SDS011;6814;57.786;12.080;2023-12-20T12:01:28;15.97;;;4.07;;
13483;SDS011;6814;57.786;12.080;2023-12-20T12:04:03;6.40;;;3.37;;
13483;SDS011;6814;57.786;12.080;2023-12-20T12:06:30;14.47;;;4.83;;
13483;SDS011;6814;57.786;12.080;2023-12-20T12:08:56;8.03;;;4.40;;
13483;SDS011;6814;57.786;12.080;2023-12-20T12:11:23;12.00;;;5.07;;
13483;SDS011;6814;57.786;12.080;2023-12-20T12:13:50;14.13;;;5.20;;
13483;SDS011;6814;57.786;12.080;2023-12-20T12:16:16;10.23;;;4.43;;
13483;SDS011;6814;57.786;12.080;2023-12-20T12:18:43;11.63;;;3.77;;
13483;SDS011;6814;57.786;12.080;2023-12-20T12:21:11;11.00;;;4.83;;
13483;SDS011;6814;57.786;12.080;2023-12-20T12:23:44;12.57;;;5.00;;
13483;SDS011;6814;57.786;12.080;2023-12-20T12:26:11;11.97;;;4.63;;
13483;SDS011;6814;57.786;12.080;2023-12-20T12:28:39;7.23;;;3.63;;
13483;SDS011;6814;57.786;12.080;2023-12-20T12:31:12;14.10;;;4.53;;
13483;SDS011;6814;57.786;12.080;2023-12-20T12:33:41;11.63;;;4.87;;
13483;SDS011;6814;57.786;12.080;2023-12-20T12:36:09;10.77;;;4.50;;
13483;SDS011;6814;57.786;12.080;2023-12-20T12:38:43;11.60;;;5.13;;
13483;SDS011;6814;57.786;12.080;2023-12-20T12:41:12;8.10;;;4.00;;
13483;SDS011;6814;57.786;12.080;2023-12-20T12:43:40;11.67;;;4.43;;
13483;SDS011;6814;57.786;12.080;2023-12-20T12:46:10;10.30;;;4.37;;
13483;SDS011;6814;57.786;12.080;2023-12-20T12:48:36;10.17;;;3.93;;
13483;SDS011;6814;57.786;12.080;2023-12-20T12:51:04;9.83;;;4.37;;
13483;SDS011;6814;57.786;12.080;2023-12-20T12:53:32;8.33;;;3.90;;
13483;SDS011;6814;57.786;12.080;2023-12-20T12:56:00;9.13;;;4.50;;
13483;SDS011;6814;57.786;12.080;2023-12-20T12:58:27;13.73;;;4.57;;
13483;SDS011;6814;57.786;12.080;2023-12-20T13:00:53;9.20;;;3.77;;
13483;SDS011;6814;57.786;12.080;2023-12-20T13:03:20;8.13;;;3.90;;
13483;SDS011;6814;57.786;12.080;2023-12-20T13:05:47;12.47;;;4.57;;
13483;SDS011;6814;57.786;12.080;2023-12-20T13:08:13;7.17;;;3.93;;
13483;SDS011;6814;57.786;12.080;2023-12-20T13:10:40;8.93;;;3.30;;
13483;SDS011;6814;57.786;12.080;2023-12-20T13:13:08;8.63;;;3.60;;
13483;SDS011;6814;57.786;12.080;2023-12-20T13:15:35;10.53;;;4.20;;
13483;SDS011;6814;57.786;12.080;2023-12-20T13:18:01;12.37;;;4.97;;
13483;SDS011;6814;57.786;12.080;2023-12-20T13:20:29;8.27;;;4.13;;
13483;SDS011;6814;57.786;12.080;2023-12-20T13:22:56;10.27;;;4.67;;
13483;SDS011;6814;57.786;12.080;2023-12-20T13:25:22;8.43;;;3.73;;
13483;SDS011;6814;57.786;12.080;2023-12-20T13:27:49;11.10;;;5.03;;
13483;SDS011;6814;57.786;12.080;2023-12-20T13:30:17;9.10;;;4.40;;
13483;SDS011;6814;57.786;12.080;2023-12-20T13:32:44;8.37;;;4.03;;
13483;SDS011;6814;57.786;12.080;2023-12-20T13:35:10;10.13;;;3.87;;
13483;SDS011;6814;57.786;12.080;2023-12-20T13:37:37;7.60;;;3.47;;
13483;SDS011;6814;57.786;12.080;2023-12-20T13:40:05;12.83;;;4.67;;
13483;SDS011;6814;57.786;12.080;2023-12-20T13:42:32;9.67;;;4.47;;
13483;SDS011;6814;57.786;12.080;2023-12-20T13:44:58;6.07;;;3.37;;
13483;SDS011;6814;57.786;12.080;2023-12-20T13:47:26;12.83;;;4.13;;
13483;SDS011;6814;57.786;12.080;2023-12-20T13:49:54;14.23;;;4.80;;
13483;SDS011;6814;57.786;12.080;2023-12-20T13:52:21;12.17;;;4.40;;
13483;SDS011;6814;57.786;12.080;2023-12-20T13:54:47;10.43;;;4.30;;
13483;SDS011;6814;57.786;12.080;2023-12-20T13:57:14;11.27;;;4.50;;
13483;SDS011;6814;57.786;12.080;2023-12-20T13:59:40;6.47;;;3.83;;
13483;SDS011;6814;57.786;12.080;2023-12-20T14:02:07;9.37;;;4.47;;
13483;SDS011;6814;57.786;12.080;2023-12-20T14:04:35;7.37;;;3.97;;
13483;SDS011;6814;57.786;12.080;2023-12-20T14:07:04;10.73;;;4.17;;
13483;SDS011;6814;57.786;12.080;2023-12-20T14:09:32;12.43;;;4.33;;
13483;SDS011;6814;57.786;12.080;2023-12-20T14:11:59;10.80;;;4.43;;
13483;SDS011;6814;57.786;12.080;2023-12-20T14:14:25;13.43;;;5.23;;
13483;SDS011;6814;57.786;12.080;2023-12-20T14:16:52;11.87;;;4.57;;
13483;SDS011;6814;57.786;12.080;2023-12-20T14:19:18;10.17;;;3.87;;
13483;SDS011;6814;57.786;12.080;2023-12-20T14:21:46;13.63;;;4.90;;
13483;SDS011;6814;57.786;12.080;2023-12-20T14:24:13;14.53;;;5.20;;
13483;SDS011;6814;57.786;12.080;2023-12-20T14:26:40;10.82;;;5.45;;
13483;SDS011;6814;57.786;12.080;2023-12-20T14:29:06;8.87;;;4.70;;
13483;SDS011;6814;57.786;12.080;2023-12-20T14:31:34;8.50;;;4.80;;
13483;SDS011;6814;57.786;12.080;2023-12-20T14:34:02;9.07;;;4.60;;